sensor_id;sensor_type;location;lat;lon;timestamp;P1;durP1;ratioP1;P2;durP2;ratioP2
62572;SDS011;48626;51.678;5.806;2023-03-31T00:02:17;10.25;;;3.00;;
62572;SDS011;48626;51.678;5.806;2023-03-31T00:04:46;11.82;;;3.10;;
62572;SDS011;48626;51.678;5.806;2023-03-31T00:07:16;12.00;;;3.00;;
62572;SDS011;48626;51.678;5.806;2023-03-31T00:09:46;11.90;;;3.08;;
62572;SDS011;48626;51.678;5.806;2023-03-31T00:12:15;11.43;;;2.83;;
62572;SDS011;48626;51.678;5.806;2023-03-31T00:14:41;10.45;;;2.88;;
62572;SDS011;48626;51.678;5.806;2023-03-31T00:17:08;7.80;;;2.75;;
62572;SDS011;48626;51.678;5.806;2023-03-31T00:19:34;5.78;;;2.42;;
62572;SDS011;48626;51.678;5.806;2023-03-31T00:22:01;9.32;;;2.67;;
62572;SDS011;48626;51.678;5.806;2023-03-31T00:24:27;7.65;;;2.83;;
62572;SDS011;48626;51.678;5.806;2023-03-31T00:26:57;10.48;;;3.67;;
62572;SDS011;48626;51.678;5.806;2023-03-31T00:29:23;8.48;;;2.70;;
62572;SDS011;48626;51.678;5.806;2023-03-31T00:31:50;8.15;;;3.13;;
62572;SDS011;48626;51.678;5.806;2023-03-31T00:34:15;12.32;;;2.80;;
62572;SDS011;48626;51.678;5.806;2023-03-31T00:36:41;13.98;;;3.20;;
62572;SDS011;48626;51.678;5.806;2023-03-31T00:39:13;8.82;;;2.88;;
62572;SDS011;48626;51.678;5.806;2023-03-31T00:41:42;8.18;;;2.92;;
62572;SDS011;48626;51.678;5.806;2023-03-31T00:46:52;9.10;;;3.00;;
62572;SDS011;48626;51.678;5.806;2023-03-31T00:49:25;7.85;;;2.95;;
62572;SDS011;48626;51.678;5.806;2023-03-31T00:52:10;9.00;;;2.85;;
62572;SDS011;48626;51.678;5.806;2023-03-31T00:54:50;11.50;;;3.53;;
62572;SDS011;48626;51.678;5.806;2023-03-31T00:57:26;6.75;;;2.67;;
62572;SDS011;48626;51.678;5.806;2023-03-31T00:59:54;11.15;;;3.03;;
62572;SDS011;48626;51.678;5.806;2023-03-31T01:02:26;9.95;;;2.90;;
62572;SDS011;48626;51.678;5.806;2023-03-31T01:04:56;10.52;;;2.95;;
62572;SDS011;48626;51.678;5.806;2023-03-31T01:07:27;8.85;;;2.92;;
62572;SDS011;48626;51.678;5.806;2023-03-31T01:10:02;11.90;;;3.00;;
62572;SDS011;48626;51.678;5.806;2023-03-31T01:12:29;6.85;;;2.60;;
62572;SDS011;48626;51.678;5.806;2023-03-31T01:14:57;13.05;;;2.97;;
62572;SDS011;48626;51.678;5.806;2023-03-31T01:17:24;10.48;;;2.80;;
62572;SDS011;48626;51.678;5.806;2023-03-31T01:20:14;12.20;;;2.75;;
62572;SDS011;48626;51.678;5.806;2023-03-31T01:36:22;14.13;;;3.00;;
62572;SDS011;48626;51.678;5.806;2023-03-31T01:42:14;11.73;;;3.00;;
62572;SDS011;48626;51.678;5.806;2023-03-31T01:47:51;11.32;;;2.90;;
62572;SDS011;48626;51.678;5.806;2023-03-31T01:56:34;11.27;;;2.75;;
62572;SDS011;48626;51.678;5.806;2023-03-31T01:59:10;13.18;;;2.85;;
62572;SDS011;48626;51.678;5.806;2023-03-31T02:06:59;17.60;;;2.90;;
62572;SDS011;48626;51.678;5.806;2023-03-31T02:09:37;11.90;;;2.90;;
62572;SDS011;48626;51.678;5.806;2023-03-31T02:12:07;14.07;;;3.00;;
62572;SDS011;48626;51.678;5.806;2023-03-31T02:14:36;18.00;;;2.85;;
62572;SDS011;48626;51.678;5.806;2023-03-31T02:17:07;11.70;;;2.90;;
62572;SDS011;48626;51.678;5.806;2023-03-31T02:19:38;15.52;;;3.30;;
62572;SDS011;48626;51.678;5.806;2023-03-31T02:22:07;9.90;;;2.38;;
62572;SDS011;48626;51.678;5.806;2023-03-31T02:24:33;7.70;;;2.60;;
62572;SDS011;48626;51.678;5.806;2023-03-31T02:29:48;15.05;;;2.97;;
62572;SDS011;48626;51.678;5.806;2023-03-31T02:34:49;13.63;;;3.10;;
62572;SDS011;48626;51.678;5.806;2023-03-31T02:37:15;21.92;;;3.53;;
62572;SDS011;48626;51.678;5.806;2023-03-31T02:39:41;20.98;;;3.50;;
62572;SDS011;48626;51.678;5.806;2023-03-31T02:42:09;17.35;;;3.38;;
62572;SDS011;48626;51.678;5.806;2023-03-31T02:44:36;9.68;;;3.05;;
62572;SDS011;48626;51.678;5.806;2023-03-31T02:47:04;18.77;;;3.58;;
62572;SDS011;48626;51.678;5.806;2023-03-31T02:49:37;16.52;;;3.22;;
62572;SDS011;48626;51.678;5.806;2023-03-31T02:58:59;13.90;;;3.50;;
62572;SDS011;48626;51.678;5.806;2023-03-31T03:01:21;15.00;;;3.22;;
62572;SDS011;48626;51.678;5.806;2023-03-31T03:04:11;14.57;;;3.50;;
62572;SDS011;48626;51.678;5.806;2023-03-31T03:09:52;20.10;;;2.90;;
62572;SDS011;48626;51.678;5.806;2023-03-31T03:12:46;13.20;;;3.65;;
62572;SDS011;48626;51.678;5.806;2023-03-31T03:15:42;15.50;;;3.30;;
62572;SDS011;48626;51.678;5.806;2023-03-31T03:18:12;13.50;;;2.65;;
62572;SDS011;48626;51.678;5.806;2023-03-31T03:20:38;16.45;;;3.22;;
62572;SDS011;48626;51.678;5.806;2023-03-31T03:23:06;16.17;;;3.00;;
62572;SDS011;48626;51.678;5.806;2023-03-31T03:25:32;14.55;;;3.15;;
62572;SDS011;48626;51.678;5.806;2023-03-31T03:27:58;18.35;;;3.60;;
62572;SDS011;48626;51.678;5.806;2023-03-31T03:30:24;20.25;;;3.10;;
62572;SDS011;48626;51.678;5.806;2023-03-31T03:32:50;11.52;;;3.10;;
62572;SDS011;48626;51.678;5.806;2023-03-31T03:35:15;18.85;;;3.72;;
62572;SDS011;48626;51.678;5.806;2023-03-31T03:37:41;17.48;;;3.60;;
62572;SDS011;48626;51.678;5.806;2023-03-31T03:40:07;20.20;;;4.15;;
62572;SDS011;48626;51.678;5.806;2023-03-31T03:42:34;21.77;;;4.22;;
62572;SDS011;48626;51.678;5.806;2023-03-31T03:45:00;14.55;;;3.20;;
62572;SDS011;48626;51.678;5.806;2023-03-31T03:47:26;17.05;;;3.65;;
62572;SDS011;48626;51.678;5.806;2023-03-31T03:49:52;16.10;;;3.42;;
62572;SDS011;48626;51.678;5.806;2023-03-31T03:52:18;21.15;;;3.85;;
62572;SDS011;48626;51.678;5.806;2023-03-31T03:54:45;21.17;;;4.03;;
62572;SDS011;48626;51.678;5.806;2023-03-31T03:57:10;23.90;;;3.80;;
62572;SDS011;48626;51.678;5.806;2023-03-31T03:59:36;24.92;;;3.78;;
62572;SDS011;48626;51.678;5.806;2023-03-31T04:02:02;14.68;;;3.30;;
62572;SDS011;48626;51.678;5.806;2023-03-31T04:04:27;14.30;;;2.88;;
62572;SDS011;48626;51.678;5.806;2023-03-31T04:06:53;17.77;;;3.80;;
62572;SDS011;48626;51.678;5.806;2023-03-31T04:09:19;17.55;;;2.92;;
62572;SDS011;48626;51.678;5.806;2023-03-31T04:11:44;14.45;;;2.80;;
62572;SDS011;48626;51.678;5.806;2023-03-31T04:14:10;14.80;;;3.20;;
62572;SDS011;48626;51.678;5.806;2023-03-31T04:16:36;11.77;;;3.20;;
62572;SDS011;48626;51.678;5.806;2023-03-31T04:19:02;15.77;;;3.00;;
62572;SDS011;48626;51.678;5.806;2023-03-31T04:21:29;20.10;;;3.30;;
62572;SDS011;48626;51.678;5.806;2023-03-31T04:23:59;18.77;;;3.10;;
62572;SDS011;48626;51.678;5.806;2023-03-31T04:26:32;12.30;;;2.88;;
62572;SDS011;48626;51.678;5.806;2023-03-31T04:29:17;20.52;;;2.88;;
62572;SDS011;48626;51.678;5.806;2023-03-31T04:31:46;15.57;;;3.72;;
62572;SDS011;48626;51.678;5.806;2023-03-31T04:34:12;10.40;;;2.90;;
62572;SDS011;48626;51.678;5.806;2023-03-31T04:36:40;15.57;;;2.80;;
62572;SDS011;48626;51.678;5.806;2023-03-31T04:39:11;19.23;;;3.15;;
62572;SDS011;48626;51.678;5.806;2023-03-31T04:41:37;15.70;;;3.03;;
62572;SDS011;48626;51.678;5.806;2023-03-31T04:44:03;11.43;;;2.72;;
62572;SDS011;48626;51.678;5.806;2023-03-31T04:46:29;12.25;;;2.90;;
62572;SDS011;48626;51.678;5.806;2023-03-31T04:48:55;20.05;;;3.10;;
62572;SDS011;48626;51.678;5.806;2023-03-31T04:51:23;13.48;;;3.03;;
62572;SDS011;48626;51.678;5.806;2023-03-31T04:53:48;13.48;;;3.47;;
62572;SDS011;48626;51.678;5.806;2023-03-31T04:56:14;15.85;;;3.10;;
62572;SDS011;48626;51.678;5.806;2023-03-31T04:58:40;13.30;;;3.35;;
62572;SDS011;48626;51.678;5.806;2023-03-31T05:01:05;15.30;;;3.28;;
62572;SDS011;48626;51.678;5.806;2023-03-31T05:03:31;13.07;;;3.20;;
62572;SDS011;48626;51.678;5.806;2023-03-31T05:05:58;8.02;;;2.70;;
62572;SDS011;48626;51.678;5.806;2023-03-31T05:08:24;11.23;;;3.13;;
62572;SDS011;48626;51.678;5.806;2023-03-31T05:10:51;16.45;;;4.10;;
62572;SDS011;48626;51.678;5.806;2023-03-31T05:13:17;14.30;;;3.85;;
62572;SDS011;48626;51.678;5.806;2023-03-31T05:15:42;20.15;;;2.92;;
62572;SDS011;48626;51.678;5.806;2023-03-31T05:18:09;10.00;;;2.63;;
62572;SDS011;48626;51.678;5.806;2023-03-31T05:20:35;19.08;;;3.10;;
62572;SDS011;48626;51.678;5.806;2023-03-31T05:23:01;16.38;;;3.50;;
62572;SDS011;48626;51.678;5.806;2023-03-31T05:25:26;19.55;;;2.92;;
62572;SDS011;48626;51.678;5.806;2023-03-31T05:27:56;18.75;;;2.83;;
62572;SDS011;48626;51.678;5.806;2023-03-31T05:30:23;11.10;;;3.05;;
62572;SDS011;48626;51.678;5.806;2023-03-31T05:32:50;12.13;;;2.83;;
62572;SDS011;48626;51.678;5.806;2023-03-31T05:35:16;13.50;;;2.70;;
62572;SDS011;48626;51.678;5.806;2023-03-31T05:37:42;12.57;;;2.60;;
62572;SDS011;48626;51.678;5.806;2023-03-31T05:40:08;16.77;;;2.85;;
62572;SDS011;48626;51.678;5.806;2023-03-31T05:42:35;13.93;;;2.67;;
62572;SDS011;48626;51.678;5.806;2023-03-31T05:45:01;7.05;;;2.50;;
62572;SDS011;48626;51.678;5.806;2023-03-31T05:47:27;7.50;;;2.50;;
62572;SDS011;48626;51.678;5.806;2023-03-31T05:49:52;12.68;;;2.80;;
62572;SDS011;48626;51.678;5.806;2023-03-31T05:52:18;8.75;;;2.22;;
62572;SDS011;48626;51.678;5.806;2023-03-31T05:54:44;10.82;;;2.45;;
62572;SDS011;48626;51.678;5.806;2023-03-31T05:57:09;10.18;;;2.92;;
62572;SDS011;48626;51.678;5.806;2023-03-31T05:59:35;7.47;;;2.42;;
62572;SDS011;48626;51.678;5.806;2023-03-31T06:02:02;8.88;;;2.50;;
62572;SDS011;48626;51.678;5.806;2023-03-31T06:04:28;10.32;;;2.72;;
62572;SDS011;48626;51.678;5.806;2023-03-31T06:06:56;8.57;;;2.50;;
62572;SDS011;48626;51.678;5.806;2023-03-31T06:09:22;12.10;;;2.40;;
62572;SDS011;48626;51.678;5.806;2023-03-31T06:11:48;9.60;;;2.58;;
62572;SDS011;48626;51.678;5.806;2023-03-31T06:14:14;7.60;;;2.42;;
62572;SDS011;48626;51.678;5.806;2023-03-31T06:16:40;12.80;;;2.42;;
62572;SDS011;48626;51.678;5.806;2023-03-31T06:19:05;11.73;;;2.60;;
62572;SDS011;48626;51.678;5.806;2023-03-31T06:21:31;13.65;;;2.67;;
62572;SDS011;48626;51.678;5.806;2023-03-31T06:23:57;7.55;;;2.35;;
62572;SDS011;48626;51.678;5.806;2023-03-31T06:26:24;8.98;;;2.60;;
62572;SDS011;48626;51.678;5.806;2023-03-31T06:28:50;8.70;;;2.53;;
62572;SDS011;48626;51.678;5.806;2023-03-31T06:31:16;12.80;;;2.60;;
62572;SDS011;48626;51.678;5.806;2023-03-31T06:33:44;11.40;;;2.80;;
62572;SDS011;48626;51.678;5.806;2023-03-31T06:36:11;11.68;;;2.42;;
62572;SDS011;48626;51.678;5.806;2023-03-31T06:38:38;6.80;;;2.47;;
62572;SDS011;48626;51.678;5.806;2023-03-31T06:41:04;13.80;;;2.67;;
62572;SDS011;48626;51.678;5.806;2023-03-31T06:43:31;17.38;;;2.75;;
62572;SDS011;48626;51.678;5.806;2023-03-31T06:45:57;10.25;;;2.63;;
62572;SDS011;48626;51.678;5.806;2023-03-31T06:48:23;10.35;;;2.20;;
62572;SDS011;48626;51.678;5.806;2023-03-31T06:50:50;9.00;;;2.80;;
62572;SDS011;48626;51.678;5.806;2023-03-31T06:53:16;15.60;;;3.15;;
62572;SDS011;48626;51.678;5.806;2023-03-31T06:55:42;10.52;;;2.45;;
62572;SDS011;48626;51.678;5.806;2023-03-31T06:58:08;6.65;;;2.58;;
62572;SDS011;48626;51.678;5.806;2023-03-31T07:00:33;8.32;;;2.70;;
62572;SDS011;48626;51.678;5.806;2023-03-31T07:02:59;11.45;;;2.75;;
62572;SDS011;48626;51.678;5.806;2023-03-31T07:05:26;12.07;;;2.72;;
62572;SDS011;48626;51.678;5.806;2023-03-31T07:07:56;11.52;;;2.80;;
62572;SDS011;48626;51.678;5.806;2023-03-31T07:12:49;8.88;;;3.42;;
62572;SDS011;48626;51.678;5.806;2023-03-31T07:15:15;10.20;;;2.80;;
62572;SDS011;48626;51.678;5.806;2023-03-31T07:17:41;12.30;;;3.33;;
62572;SDS011;48626;51.678;5.806;2023-03-31T07:20:07;17.15;;;2.85;;
62572;SDS011;48626;51.678;5.806;2023-03-31T07:22:36;9.98;;;2.78;;
62572;SDS011;48626;51.678;5.806;2023-03-31T07:25:02;14.70;;;2.70;;
62572;SDS011;48626;51.678;5.806;2023-03-31T07:27:28;8.30;;;2.42;;
62572;SDS011;48626;51.678;5.806;2023-03-31T07:29:54;6.18;;;2.40;;
62572;SDS011;48626;51.678;5.806;2023-03-31T07:32:20;9.60;;;2.63;;
62572;SDS011;48626;51.678;5.806;2023-03-31T07:34:47;12.07;;;2.97;;
62572;SDS011;48626;51.678;5.806;2023-03-31T07:37:13;12.82;;;2.80;;
62572;SDS011;48626;51.678;5.806;2023-03-31T07:39:38;17.40;;;3.33;;
62572;SDS011;48626;51.678;5.806;2023-03-31T07:42:04;17.52;;;3.13;;
62572;SDS011;48626;51.678;5.806;2023-03-31T07:44:32;9.32;;;2.63;;
62572;SDS011;48626;51.678;5.806;2023-03-31T07:46:58;19.10;;;3.65;;
62572;SDS011;48626;51.678;5.806;2023-03-31T07:49:28;12.18;;;3.25;;
62572;SDS011;48626;51.678;5.806;2023-03-31T07:51:54;18.95;;;3.00;;
62572;SDS011;48626;51.678;5.806;2023-03-31T07:54:20;14.80;;;3.08;;
62572;SDS011;48626;51.678;5.806;2023-03-31T07:56:46;14.15;;;3.25;;
62572;SDS011;48626;51.678;5.806;2023-03-31T07:59:12;9.40;;;3.13;;
62572;SDS011;48626;51.678;5.806;2023-03-31T08:01:37;12.73;;;2.88;;
62572;SDS011;48626;51.678;5.806;2023-03-31T08:04:03;18.00;;;3.40;;
62572;SDS011;48626;51.678;5.806;2023-03-31T08:06:29;13.35;;;2.83;;
62572;SDS011;48626;51.678;5.806;2023-03-31T08:08:55;19.35;;;3.88;;
62572;SDS011;48626;51.678;5.806;2023-03-31T08:11:22;12.18;;;3.10;;
62572;SDS011;48626;51.678;5.806;2023-03-31T08:13:48;18.75;;;3.13;;
62572;SDS011;48626;51.678;5.806;2023-03-31T08:16:14;10.88;;;3.05;;
62572;SDS011;48626;51.678;5.806;2023-03-31T08:18:40;9.23;;;2.88;;
62572;SDS011;48626;51.678;5.806;2023-03-31T08:21:06;9.43;;;2.85;;
62572;SDS011;48626;51.678;5.806;2023-03-31T08:23:33;9.98;;;2.72;;
62572;SDS011;48626;51.678;5.806;2023-03-31T08:26:06;20.45;;;3.03;;
62572;SDS011;48626;51.678;5.806;2023-03-31T08:28:36;14.10;;;3.25;;
62572;SDS011;48626;51.678;5.806;2023-03-31T08:31:03;13.73;;;2.95;;
62572;SDS011;48626;51.678;5.806;2023-03-31T08:33:30;14.00;;;3.33;;
62572;SDS011;48626;51.678;5.806;2023-03-31T08:35:55;13.95;;;3.22;;
62572;SDS011;48626;51.678;5.806;2023-03-31T08:38:21;20.45;;;3.75;;
62572;SDS011;48626;51.678;5.806;2023-03-31T08:40:47;18.10;;;3.90;;
62572;SDS011;48626;51.678;5.806;2023-03-31T08:43:17;16.42;;;3.90;;
62572;SDS011;48626;51.678;5.806;2023-03-31T08:45:51;18.92;;;4.10;;
62572;SDS011;48626;51.678;5.806;2023-03-31T08:48:35;23.48;;;4.10;;
62572;SDS011;48626;51.678;5.806;2023-03-31T08:51:52;19.70;;;3.97;;
62572;SDS011;48626;51.678;5.806;2023-03-31T08:56:49;12.48;;;3.38;;
62572;SDS011;48626;51.678;5.806;2023-03-31T09:05:17;15.77;;;3.70;;
62572;SDS011;48626;51.678;5.806;2023-03-31T09:08:03;28.25;;;4.20;;
62572;SDS011;48626;51.678;5.806;2023-03-31T09:16:22;23.30;;;4.28;;
62572;SDS011;48626;51.678;5.806;2023-03-31T09:22:37;21.23;;;4.30;;
62572;SDS011;48626;51.678;5.806;2023-03-31T09:25:12;25.25;;;4.45;;
62572;SDS011;48626;51.678;5.806;2023-03-31T09:27:44;23.77;;;4.00;;
62572;SDS011;48626;51.678;5.806;2023-03-31T09:30:13;24.23;;;3.85;;
62572;SDS011;48626;51.678;5.806;2023-03-31T09:32:40;26.58;;;4.35;;
62572;SDS011;48626;51.678;5.806;2023-03-31T09:35:17;19.77;;;3.75;;
62572;SDS011;48626;51.678;5.806;2023-03-31T09:37:45;28.35;;;3.95;;
62572;SDS011;48626;51.678;5.806;2023-03-31T09:40:33;25.70;;;3.83;;
62572;SDS011;48626;51.678;5.806;2023-03-31T09:42:59;24.63;;;3.85;;
62572;SDS011;48626;51.678;5.806;2023-03-31T09:45:28;27.90;;;5.00;;
62572;SDS011;48626;51.678;5.806;2023-03-31T09:48:00;31.63;;;4.43;;
62572;SDS011;48626;51.678;5.806;2023-03-31T09:50:30;23.42;;;4.22;;
62572;SDS011;48626;51.678;5.806;2023-03-31T09:53:06;29.52;;;4.88;;
62572;SDS011;48626;51.678;5.806;2023-03-31T09:58:15;25.33;;;4.03;;
62572;SDS011;48626;51.678;5.806;2023-03-31T10:00:42;22.35;;;4.32;;
62572;SDS011;48626;51.678;5.806;2023-03-31T10:03:42;23.05;;;4.00;;
62572;SDS011;48626;51.678;5.806;2023-03-31T10:06:14;18.45;;;3.80;;
62572;SDS011;48626;51.678;5.806;2023-03-31T10:08:42;17.20;;;3.70;;
62572;SDS011;48626;51.678;5.806;2023-03-31T10:11:22;23.10;;;4.25;;
62572;SDS011;48626;51.678;5.806;2023-03-31T10:14:04;20.25;;;3.63;;
62572;SDS011;48626;51.678;5.806;2023-03-31T10:22:00;25.65;;;3.75;;
62572;SDS011;48626;51.678;5.806;2023-03-31T10:24:36;19.40;;;4.03;;
62572;SDS011;48626;51.678;5.806;2023-03-31T10:27:04;18.73;;;3.45;;
62572;SDS011;48626;51.678;5.806;2023-03-31T10:29:37;24.60;;;3.80;;
62572;SDS011;48626;51.678;5.806;2023-03-31T10:32:14;21.35;;;3.38;;
62572;SDS011;48626;51.678;5.806;2023-03-31T10:34:52;27.60;;;4.15;;
62572;SDS011;48626;51.678;5.806;2023-03-31T10:37:24;20.65;;;3.63;;
62572;SDS011;48626;51.678;5.806;2023-03-31T10:39:56;14.98;;;3.60;;
62572;SDS011;48626;51.678;5.806;2023-03-31T10:42:31;21.35;;;3.92;;
62572;SDS011;48626;51.678;5.806;2023-03-31T10:45:23;22.92;;;3.88;;
62572;SDS011;48626;51.678;5.806;2023-03-31T10:48:00;21.10;;;3.63;;
62572;SDS011;48626;51.678;5.806;2023-03-31T10:50:27;15.30;;;3.55;;
62572;SDS011;48626;51.678;5.806;2023-03-31T10:55:30;17.23;;;3.40;;
62572;SDS011;48626;51.678;5.806;2023-03-31T10:58:18;14.80;;;3.03;;
62572;SDS011;48626;51.678;5.806;2023-03-31T11:09:30;16.88;;;3.30;;
62572;SDS011;48626;51.678;5.806;2023-03-31T11:12:30;19.98;;;3.35;;
62572;SDS011;48626;51.678;5.806;2023-03-31T11:20:35;17.35;;;3.60;;
62572;SDS011;48626;51.678;5.806;2023-03-31T11:26:18;16.95;;;3.22;;
62572;SDS011;48626;51.678;5.806;2023-03-31T11:42:50;16.95;;;3.70;;
62572;SDS011;48626;51.678;5.806;2023-03-31T11:47:54;23.38;;;3.80;;
62572;SDS011;48626;51.678;5.806;2023-03-31T11:50:29;18.70;;;3.85;;
62572;SDS011;48626;51.678;5.806;2023-03-31T11:53:05;16.13;;;3.53;;
62572;SDS011;48626;51.678;5.806;2023-03-31T11:55:37;14.93;;;3.28;;
62572;SDS011;48626;51.678;5.806;2023-03-31T11:58:09;22.38;;;4.25;;
62572;SDS011;48626;51.678;5.806;2023-03-31T12:00:42;14.25;;;3.40;;
62572;SDS011;48626;51.678;5.806;2023-03-31T12:05:41;14.77;;;3.70;;
62572;SDS011;48626;51.678;5.806;2023-03-31T12:08:40;22.53;;;4.13;;
62572;SDS011;48626;51.678;5.806;2023-03-31T12:12:01;18.88;;;3.85;;
62572;SDS011;48626;51.678;5.806;2023-03-31T12:17:04;12.43;;;3.20;;
62572;SDS011;48626;51.678;5.806;2023-03-31T12:22:03;11.70;;;2.92;;
62572;SDS011;48626;51.678;5.806;2023-03-31T12:24:51;16.02;;;3.50;;
62572;SDS011;48626;51.678;5.806;2023-03-31T12:27:25;15.52;;;4.07;;
62572;SDS011;48626;51.678;5.806;2023-03-31T12:32:29;13.40;;;3.72;;
62572;SDS011;48626;51.678;5.806;2023-03-31T12:40:41;13.55;;;3.70;;
62572;SDS011;48626;51.678;5.806;2023-03-31T13:06:00;10.48;;;2.80;;
62572;SDS011;48626;51.678;5.806;2023-03-31T13:11:37;12.82;;;3.20;;
62572;SDS011;48626;51.678;5.806;2023-03-31T13:14:23;15.85;;;3.63;;
62572;SDS011;48626;51.678;5.806;2023-03-31T13:16:53;14.13;;;3.00;;
62572;SDS011;48626;51.678;5.806;2023-03-31T13:19:37;9.32;;;2.55;;
62572;SDS011;48626;51.678;5.806;2023-03-31T13:22:05;10.75;;;3.05;;
62572;SDS011;48626;51.678;5.806;2023-03-31T13:24:31;10.70;;;2.80;;
62572;SDS011;48626;51.678;5.806;2023-03-31T13:27:27;10.85;;;2.88;;
62572;SDS011;48626;51.678;5.806;2023-03-31T13:29:54;8.68;;;2.60;;
62572;SDS011;48626;51.678;5.806;2023-03-31T13:32:21;8.65;;;2.88;;
62572;SDS011;48626;51.678;5.806;2023-03-31T13:34:50;9.50;;;2.78;;
62572;SDS011;48626;51.678;5.806;2023-03-31T13:46:24;12.48;;;3.20;;
62572;SDS011;48626;51.678;5.806;2023-03-31T13:52:00;4.70;;;2.10;;
62572;SDS011;48626;51.678;5.806;2023-03-31T14:07:58;6.03;;;2.17;;
62572;SDS011;48626;51.678;5.806;2023-03-31T14:10:31;7.45;;;2.42;;
62572;SDS011;48626;51.678;5.806;2023-03-31T14:15:41;9.05;;;2.42;;
62572;SDS011;48626;51.678;5.806;2023-03-31T14:18:19;6.30;;;2.33;;
62572;SDS011;48626;51.678;5.806;2023-03-31T14:37:27;7.53;;;2.30;;
62572;SDS011;48626;51.678;5.806;2023-03-31T14:39:54;8.10;;;2.58;;
62572;SDS011;48626;51.678;5.806;2023-03-31T14:42:25;8.35;;;2.00;;
62572;SDS011;48626;51.678;5.806;2023-03-31T14:45:05;8.90;;;2.63;;
62572;SDS011;48626;51.678;5.806;2023-03-31T14:47:39;5.72;;;2.10;;
62572;SDS011;48626;51.678;5.806;2023-03-31T14:50:10;4.78;;;1.85;;
62572;SDS011;48626;51.678;5.806;2023-03-31T14:52:39;5.03;;;1.77;;
62572;SDS011;48626;51.678;5.806;2023-03-31T14:55:17;5.18;;;2.00;;
62572;SDS011;48626;51.678;5.806;2023-03-31T14:57:50;6.40;;;2.50;;
62572;SDS011;48626;51.678;5.806;2023-03-31T15:00:27;8.02;;;2.20;;
62572;SDS011;48626;51.678;5.806;2023-03-31T15:02:57;5.85;;;2.00;;
62572;SDS011;48626;51.678;5.806;2023-03-31T15:05:29;6.68;;;2.13;;
62572;SDS011;48626;51.678;5.806;2023-03-31T15:07:58;5.35;;;1.80;;
62572;SDS011;48626;51.678;5.806;2023-03-31T15:10:28;5.72;;;1.90;;
62572;SDS011;48626;51.678;5.806;2023-03-31T15:12:58;5.10;;;1.73;;
62572;SDS011;48626;51.678;5.806;2023-03-31T15:15:26;5.25;;;1.65;;
62572;SDS011;48626;51.678;5.806;2023-03-31T15:17:52;3.83;;;1.83;;
62572;SDS011;48626;51.678;5.806;2023-03-31T15:20:25;15.93;;;3.05;;
62572;SDS011;48626;51.678;5.806;2023-03-31T15:22:55;3.65;;;1.80;;
62572;SDS011;48626;51.678;5.806;2023-03-31T15:25:28;3.95;;;1.52;;
62572;SDS011;48626;51.678;5.806;2023-03-31T15:28:01;5.78;;;1.63;;
62572;SDS011;48626;51.678;5.806;2023-03-31T15:30:30;4.63;;;1.50;;
62572;SDS011;48626;51.678;5.806;2023-03-31T15:32:56;5.28;;;2.10;;
62572;SDS011;48626;51.678;5.806;2023-03-31T15:35:30;4.70;;;1.55;;
62572;SDS011;48626;51.678;5.806;2023-03-31T15:37:58;3.67;;;1.80;;
62572;SDS011;48626;51.678;5.806;2023-03-31T15:40:36;3.88;;;1.80;;
62572;SDS011;48626;51.678;5.806;2023-03-31T15:43:11;5.70;;;2.13;;
62572;SDS011;48626;51.678;5.806;2023-03-31T15:45:50;5.97;;;2.03;;
62572;SDS011;48626;51.678;5.806;2023-03-31T15:53:49;3.40;;;1.98;;
62572;SDS011;48626;51.678;5.806;2023-03-31T15:56:30;3.23;;;1.57;;
62572;SDS011;48626;51.678;5.806;2023-03-31T15:59:25;2.13;;;1.40;;
62572;SDS011;48626;51.678;5.806;2023-03-31T16:01:53;4.45;;;1.70;;
62572;SDS011;48626;51.678;5.806;2023-03-31T16:04:21;2.00;;;1.48;;
62572;SDS011;48626;51.678;5.806;2023-03-31T16:09:20;6.18;;;1.40;;
62572;SDS011;48626;51.678;5.806;2023-03-31T16:15:08;4.20;;;1.42;;
62572;SDS011;48626;51.678;5.806;2023-03-31T16:22:53;4.45;;;1.55;;
62572;SDS011;48626;51.678;5.806;2023-03-31T16:25:23;2.20;;;1.08;;
62572;SDS011;48626;51.678;5.806;2023-03-31T16:27:55;2.22;;;1.15;;
62572;SDS011;48626;51.678;5.806;2023-03-31T16:30:42;3.08;;;1.10;;
62572;SDS011;48626;51.678;5.806;2023-03-31T16:35:39;3.63;;;1.55;;
62572;SDS011;48626;51.678;5.806;2023-03-31T16:38:12;1.90;;;1.45;;
62572;SDS011;48626;51.678;5.806;2023-03-31T16:40:41;4.53;;;1.80;;
62572;SDS011;48626;51.678;5.806;2023-03-31T16:45:39;4.15;;;1.90;;
62572;SDS011;48626;51.678;5.806;2023-03-31T16:48:07;5.13;;;2.30;;
62572;SDS011;48626;51.678;5.806;2023-03-31T16:50:32;5.03;;;1.90;;
62572;SDS011;48626;51.678;5.806;2023-03-31T16:52:59;4.68;;;1.73;;
62572;SDS011;48626;51.678;5.806;2023-03-31T16:55:25;3.28;;;1.92;;
62572;SDS011;48626;51.678;5.806;2023-03-31T16:57:51;3.17;;;1.88;;
62572;SDS011;48626;51.678;5.806;2023-03-31T17:00:18;4.35;;;1.90;;
62572;SDS011;48626;51.678;5.806;2023-03-31T17:02:44;4.05;;;1.70;;
62572;SDS011;48626;51.678;5.806;2023-03-31T17:05:10;6.05;;;1.95;;
62572;SDS011;48626;51.678;5.806;2023-03-31T17:07:37;7.18;;;2.70;;
62572;SDS011;48626;51.678;5.806;2023-03-31T17:10:03;5.00;;;2.25;;
62572;SDS011;48626;51.678;5.806;2023-03-31T17:12:30;4.40;;;2.22;;
62572;SDS011;48626;51.678;5.806;2023-03-31T17:14:56;7.13;;;2.28;;
62572;SDS011;48626;51.678;5.806;2023-03-31T17:17:21;4.45;;;2.20;;
62572;SDS011;48626;51.678;5.806;2023-03-31T17:19:47;6.50;;;2.17;;
62572;SDS011;48626;51.678;5.806;2023-03-31T17:22:13;3.38;;;1.58;;
62572;SDS011;48626;51.678;5.806;2023-03-31T17:24:39;3.88;;;1.95;;
62572;SDS011;48626;51.678;5.806;2023-03-31T17:27:05;6.18;;;2.03;;
62572;SDS011;48626;51.678;5.806;2023-03-31T17:29:30;6.63;;;1.92;;
62572;SDS011;48626;51.678;5.806;2023-03-31T17:31:56;3.72;;;1.60;;
62572;SDS011;48626;51.678;5.806;2023-03-31T17:34:21;6.93;;;1.90;;
62572;SDS011;48626;51.678;5.806;2023-03-31T17:36:47;4.43;;;1.83;;
62572;SDS011;48626;51.678;5.806;2023-03-31T17:39:15;4.85;;;1.83;;
62572;SDS011;48626;51.678;5.806;2023-03-31T17:41:41;5.32;;;2.08;;
62572;SDS011;48626;51.678;5.806;2023-03-31T17:44:06;6.47;;;1.80;;
62572;SDS011;48626;51.678;5.806;2023-03-31T17:46:32;5.25;;;1.73;;
62572;SDS011;48626;51.678;5.806;2023-03-31T17:48:59;7.25;;;2.00;;
62572;SDS011;48626;51.678;5.806;2023-03-31T17:51:25;5.18;;;2.05;;
62572;SDS011;48626;51.678;5.806;2023-03-31T17:53:52;7.63;;;2.45;;
62572;SDS011;48626;51.678;5.806;2023-03-31T17:56:17;6.85;;;2.63;;
62572;SDS011;48626;51.678;5.806;2023-03-31T17:58:43;7.97;;;2.35;;
62572;SDS011;48626;51.678;5.806;2023-03-31T18:01:10;4.45;;;1.88;;
62572;SDS011;48626;51.678;5.806;2023-03-31T18:03:37;5.82;;;1.90;;
62572;SDS011;48626;51.678;5.806;2023-03-31T18:06:03;6.82;;;2.20;;
62572;SDS011;48626;51.678;5.806;2023-03-31T18:08:35;6.63;;;2.20;;
62572;SDS011;48626;51.678;5.806;2023-03-31T18:11:02;4.40;;;1.88;;
62572;SDS011;48626;51.678;5.806;2023-03-31T18:13:29;5.63;;;2.10;;
62572;SDS011;48626;51.678;5.806;2023-03-31T18:15:56;7.53;;;2.50;;
62572;SDS011;48626;51.678;5.806;2023-03-31T18:18:22;5.75;;;2.55;;
62572;SDS011;48626;51.678;5.806;2023-03-31T18:20:50;6.60;;;2.92;;
62572;SDS011;48626;51.678;5.806;2023-03-31T18:23:16;5.72;;;2.47;;
62572;SDS011;48626;51.678;5.806;2023-03-31T18:25:42;5.97;;;2.70;;
62572;SDS011;48626;51.678;5.806;2023-03-31T18:28:10;5.00;;;2.25;;
62572;SDS011;48626;51.678;5.806;2023-03-31T18:30:40;4.18;;;2.42;;
62572;SDS011;48626;51.678;5.806;2023-03-31T18:33:07;5.97;;;1.98;;
62572;SDS011;48626;51.678;5.806;2023-03-31T18:35:33;5.53;;;2.20;;
62572;SDS011;48626;51.678;5.806;2023-03-31T18:37:59;6.40;;;2.20;;
62572;SDS011;48626;51.678;5.806;2023-03-31T18:40:25;5.03;;;2.35;;